Main page
Satellite images 10-day forecastsClimateMarine weather Cyclones Lightning AirportsFAQ Newsletter About
Weather : Europe Africa North America South America Asia Australia-Oceania Others
Languages Contact

London-Gatwick, England

Gatwick Airport

latitude: 51-09N, longitude: 000-11W, elevation: 62 m


METAR: EGKK 282350Z 24007KT CAVOK 11/08 Q1009
TAF: EGKK 282302Z 2900/3006 27010KT 9999 FEW040 PROB30 TEMPO 2913/2921 6000 SHRA

Time: 01:33 (00:33 UTC)

Current weather observation

The report was made 43 minutes ago, at 23:50 UTC
Wind 7 kt from the West/Southwest
Temperature 11°C
Humidity 82%
Pressure 1009 hPa
Visibility 10 km or more
no clouds below 1500 m and no cumulonimbus

Change units

Forecast

The report was made 1 hour and 31 minutes ago, at 23:02 UTC
Forecast valid from 29 at 00 UTC to 30 at 06 UTC
Wind 10 kt from the West
Visibility 10 km or more
Few clouds at a height of 4000 ft
Probability 30% :
Temporary
from 29 at 13 UTC to 29 at 21 UTC
Visibility: 6000 m
rain showers
The information on this site is subject to a disclaimer
Weather : Europe Africa North America South America Asia Australia-Oceania Others
Satellite images 10-day forecastsClimateMarine weather Cyclones Lightning AirportsFAQ Languages Contact Newsletter About